sensor_id;sensor_type;location;lat;lon;timestamp;P1;durP1;ratioP1;P2;durP2;ratioP2
5117;SDS011;2578;51.622;7.046;2023-03-23T00:00:04;9.93;;;9.33;;
5117;SDS011;2578;51.622;7.046;2023-03-23T00:02:31;10.27;;;9.47;;
5117;SDS011;2578;51.622;7.046;2023-03-23T00:05:00;10.00;;;9.30;;
5117;SDS011;2578;51.622;7.046;2023-03-23T00:07:28;12.10;;;11.10;;
5117;SDS011;2578;51.622;7.046;2023-03-23T00:09:54;9.20;;;8.60;;
5117;SDS011;2578;51.622;7.046;2023-03-23T00:12:20;9.53;;;8.93;;
5117;SDS011;2578;51.622;7.046;2023-03-23T00:14:58;10.20;;;9.50;;
5117;SDS011;2578;51.622;7.046;2023-03-23T00:17:25;9.60;;;9.00;;
5117;SDS011;2578;51.622;7.046;2023-03-23T00:19:51;9.40;;;8.80;;
5117;SDS011;2578;51.622;7.046;2023-03-23T00:22:18;8.90;;;8.40;;
5117;SDS011;2578;51.622;7.046;2023-03-23T00:24:46;9.93;;;9.23;;
5117;SDS011;2578;51.622;7.046;2023-03-23T00:27:15;9.13;;;8.53;;
5117;SDS011;2578;51.622;7.046;2023-03-23T00:29:41;8.80;;;8.30;;
5117;SDS011;2578;51.622;7.046;2023-03-23T00:32:09;8.67;;;8.07;;
5117;SDS011;2578;51.622;7.046;2023-03-23T00:34:38;9.03;;;8.33;;
5117;SDS011;2578;51.622;7.046;2023-03-23T00:37:06;8.27;;;7.77;;
5117;SDS011;2578;51.622;7.046;2023-03-23T00:39:32;8.80;;;7.60;;
5117;SDS011;2578;51.622;7.046;2023-03-23T00:41:58;8.73;;;8.13;;
5117;SDS011;2578;51.622;7.046;2023-03-23T00:44:27;8.20;;;7.60;;
5117;SDS011;2578;51.622;7.046;2023-03-23T00:46:53;7.60;;;7.10;;
5117;SDS011;2578;51.622;7.046;2023-03-23T00:49:21;8.80;;;8.20;;
5117;SDS011;2578;51.622;7.046;2023-03-23T00:51:49;7.03;;;6.60;;
5117;SDS011;2578;51.622;7.046;2023-03-23T00:54:16;7.10;;;6.60;;
5117;SDS011;2578;51.622;7.046;2023-03-23T00:56:42;7.57;;;6.97;;
5117;SDS011;2578;51.622;7.046;2023-03-23T00:59:07;6.50;;;6.10;;
5117;SDS011;2578;51.622;7.046;2023-03-23T01:01:33;7.17;;;6.67;;
5117;SDS011;2578;51.622;7.046;2023-03-23T01:04:00;7.57;;;7.07;;
5117;SDS011;2578;51.622;7.046;2023-03-23T01:06:28;7.70;;;6.90;;
5117;SDS011;2578;51.622;7.046;2023-03-23T01:09:04;8.17;;;7.40;;
5117;SDS011;2578;51.622;7.046;2023-03-23T01:11:35;6.10;;;5.70;;
5117;SDS011;2578;51.622;7.046;2023-03-23T01:14:00;6.67;;;6.17;;
5117;SDS011;2578;51.622;7.046;2023-03-23T01:16:26;5.97;;;5.57;;
5117;SDS011;2578;51.622;7.046;2023-03-23T01:18:52;5.90;;;5.50;;
5117;SDS011;2578;51.622;7.046;2023-03-23T01:21:19;5.60;;;5.20;;
5117;SDS011;2578;51.622;7.046;2023-03-23T01:23:45;6.10;;;5.50;;
5117;SDS011;2578;51.622;7.046;2023-03-23T01:26:13;5.80;;;5.30;;
5117;SDS011;2578;51.622;7.046;2023-03-23T01:28:43;43.80;;;6.77;;
5117;SDS011;2578;51.622;7.046;2023-03-23T01:31:11;5.40;;;4.90;;
5117;SDS011;2578;51.622;7.046;2023-03-23T01:33:38;4.80;;;4.40;;
5117;SDS011;2578;51.622;7.046;2023-03-23T01:36:06;4.80;;;4.40;;
5117;SDS011;2578;51.622;7.046;2023-03-23T01:38:43;6.17;;;5.67;;
5117;SDS011;2578;51.622;7.046;2023-03-23T01:41:10;5.23;;;4.83;;
5117;SDS011;2578;51.622;7.046;2023-03-23T01:43:53;5.30;;;4.90;;
5117;SDS011;2578;51.622;7.046;2023-03-23T01:46:30;6.33;;;5.10;;
5117;SDS011;2578;51.622;7.046;2023-03-23T01:48:58;6.10;;;5.50;;
5117;SDS011;2578;51.622;7.046;2023-03-23T01:51:35;7.60;;;6.90;;
5117;SDS011;2578;51.622;7.046;2023-03-23T01:54:06;5.10;;;4.70;;
5117;SDS011;2578;51.622;7.046;2023-03-23T01:56:45;4.80;;;4.40;;
5117;SDS011;2578;51.622;7.046;2023-03-23T01:59:15;4.43;;;4.03;;
5117;SDS011;2578;51.622;7.046;2023-03-23T02:01:41;4.53;;;4.13;;
5117;SDS011;2578;51.622;7.046;2023-03-23T02:04:11;4.43;;;4.03;;
5117;SDS011;2578;51.622;7.046;2023-03-23T02:06:39;5.10;;;4.70;;
5117;SDS011;2578;51.622;7.046;2023-03-23T02:09:05;4.40;;;4.00;;
5117;SDS011;2578;51.622;7.046;2023-03-23T02:11:31;4.70;;;4.30;;
5117;SDS011;2578;51.622;7.046;2023-03-23T02:13:57;4.60;;;4.20;;
5117;SDS011;2578;51.622;7.046;2023-03-23T02:24:39;4.30;;;3.87;;
5117;SDS011;2578;51.622;7.046;2023-03-23T02:35:56;4.83;;;4.03;;
5117;SDS011;2578;51.622;7.046;2023-03-23T02:41:02;3.80;;;3.40;;
5117;SDS011;2578;51.622;7.046;2023-03-23T02:43:31;4.10;;;3.70;;
5117;SDS011;2578;51.622;7.046;2023-03-23T02:46:04;4.20;;;3.80;;
5117;SDS011;2578;51.622;7.046;2023-03-23T02:48:32;4.13;;;3.50;;
5117;SDS011;2578;51.622;7.046;2023-03-23T02:50:58;4.13;;;3.57;;
5117;SDS011;2578;51.622;7.046;2023-03-23T02:53:26;3.80;;;3.27;;
5117;SDS011;2578;51.622;7.046;2023-03-23T02:55:55;3.63;;;3.23;;
5117;SDS011;2578;51.622;7.046;2023-03-23T02:58:22;3.57;;;3.17;;
5117;SDS011;2578;51.622;7.046;2023-03-23T03:00:49;3.07;;;2.43;;
5117;SDS011;2578;51.622;7.046;2023-03-23T03:03:16;3.13;;;2.50;;
5117;SDS011;2578;51.622;7.046;2023-03-23T03:05:59;4.03;;;3.13;;
5117;SDS011;2578;51.622;7.046;2023-03-23T03:11:22;3.60;;;2.80;;
5117;SDS011;2578;51.622;7.046;2023-03-23T03:16:35;3.97;;;3.10;;
5117;SDS011;2578;51.622;7.046;2023-03-23T03:19:25;3.30;;;2.70;;
5117;SDS011;2578;51.622;7.046;2023-03-23T03:21:57;3.27;;;2.63;;
5117;SDS011;2578;51.622;7.046;2023-03-23T03:24:24;3.30;;;2.90;;
5117;SDS011;2578;51.622;7.046;2023-03-23T03:26:53;3.50;;;3.10;;
5117;SDS011;2578;51.622;7.046;2023-03-23T03:29:44;4.10;;;3.70;;
5117;SDS011;2578;51.622;7.046;2023-03-23T03:32:11;4.43;;;2.73;;
5117;SDS011;2578;51.622;7.046;2023-03-23T03:34:41;3.70;;;2.77;;
5117;SDS011;2578;51.622;7.046;2023-03-23T03:37:07;7.43;;;3.30;;
5117;SDS011;2578;51.622;7.046;2023-03-23T03:39:36;4.50;;;2.97;;
5117;SDS011;2578;51.622;7.046;2023-03-23T03:42:03;3.40;;;2.70;;
5117;SDS011;2578;51.622;7.046;2023-03-23T03:44:32;3.60;;;3.10;;
5117;SDS011;2578;51.622;7.046;2023-03-23T03:46:58;3.80;;;2.80;;
5117;SDS011;2578;51.622;7.046;2023-03-23T03:49:24;5.47;;;3.40;;
5117;SDS011;2578;51.622;7.046;2023-03-23T03:51:51;3.10;;;2.60;;
5117;SDS011;2578;51.622;7.046;2023-03-23T03:54:17;3.70;;;3.07;;
5117;SDS011;2578;51.622;7.046;2023-03-23T03:56:42;3.10;;;2.60;;
5117;SDS011;2578;51.622;7.046;2023-03-23T03:59:09;4.33;;;3.43;;
5117;SDS011;2578;51.622;7.046;2023-03-23T04:01:36;4.13;;;2.87;;
5117;SDS011;2578;51.622;7.046;2023-03-23T04:04:02;3.70;;;2.90;;
5117;SDS011;2578;51.622;7.046;2023-03-23T04:06:31;3.40;;;2.80;;
5117;SDS011;2578;51.622;7.046;2023-03-23T04:08:57;7.50;;;4.40;;
5117;SDS011;2578;51.622;7.046;2023-03-23T04:11:24;3.13;;;2.80;;
5117;SDS011;2578;51.622;7.046;2023-03-23T04:13:51;3.10;;;2.60;;
5117;SDS011;2578;51.622;7.046;2023-03-23T04:16:16;3.90;;;3.10;;
5117;SDS011;2578;51.622;7.046;2023-03-23T04:18:42;3.30;;;2.80;;
5117;SDS011;2578;51.622;7.046;2023-03-23T04:21:08;4.57;;;3.53;;
5117;SDS011;2578;51.622;7.046;2023-03-23T04:23:34;3.10;;;2.50;;
5117;SDS011;2578;51.622;7.046;2023-03-23T04:26:00;3.20;;;2.87;;
5117;SDS011;2578;51.622;7.046;2023-03-23T04:28:28;3.53;;;2.80;;
5117;SDS011;2578;51.622;7.046;2023-03-23T04:30:54;3.20;;;2.77;;
5117;SDS011;2578;51.622;7.046;2023-03-23T04:33:24;3.20;;;2.50;;
5117;SDS011;2578;51.622;7.046;2023-03-23T04:35:54;3.80;;;2.80;;
5117;SDS011;2578;51.622;7.046;2023-03-23T04:38:22;4.80;;;3.33;;
5117;SDS011;2578;51.622;7.046;2023-03-23T04:40:49;3.50;;;2.53;;
5117;SDS011;2578;51.622;7.046;2023-03-23T04:43:17;3.00;;;2.40;;
5117;SDS011;2578;51.622;7.046;2023-03-23T04:45:46;3.13;;;2.70;;
5117;SDS011;2578;51.622;7.046;2023-03-23T04:48:16;3.60;;;2.70;;
5117;SDS011;2578;51.622;7.046;2023-03-23T04:50:43;3.17;;;2.70;;
5117;SDS011;2578;51.622;7.046;2023-03-23T04:53:09;4.03;;;2.97;;
5117;SDS011;2578;51.622;7.046;2023-03-23T04:55:36;3.20;;;2.60;;
5117;SDS011;2578;51.622;7.046;2023-03-23T04:58:05;6.20;;;3.27;;
5117;SDS011;2578;51.622;7.046;2023-03-23T05:00:33;3.10;;;2.70;;
5117;SDS011;2578;51.622;7.046;2023-03-23T05:03:00;3.10;;;2.77;;
5117;SDS011;2578;51.622;7.046;2023-03-23T05:05:26;3.90;;;3.23;;
5117;SDS011;2578;51.622;7.046;2023-03-23T05:07:54;3.97;;;3.33;;
5117;SDS011;2578;51.622;7.046;2023-03-23T05:10:20;3.23;;;2.73;;
5117;SDS011;2578;51.622;7.046;2023-03-23T05:12:46;3.20;;;2.77;;
5117;SDS011;2578;51.622;7.046;2023-03-23T05:15:12;3.83;;;3.43;;
5117;SDS011;2578;51.622;7.046;2023-03-23T05:17:39;3.43;;;3.10;;
5117;SDS011;2578;51.622;7.046;2023-03-23T05:20:12;3.40;;;2.80;;
5117;SDS011;2578;51.622;7.046;2023-03-23T05:22:39;3.03;;;2.47;;
5117;SDS011;2578;51.622;7.046;2023-03-23T05:25:09;3.60;;;2.60;;
5117;SDS011;2578;51.622;7.046;2023-03-23T05:27:36;3.70;;;3.20;;
5117;SDS011;2578;51.622;7.046;2023-03-23T05:30:03;3.30;;;2.73;;
5117;SDS011;2578;51.622;7.046;2023-03-23T05:32:30;31.47;;;4.40;;
5117;SDS011;2578;51.622;7.046;2023-03-23T05:34:56;3.20;;;2.80;;
5117;SDS011;2578;51.622;7.046;2023-03-23T05:37:26;3.43;;;3.10;;
5117;SDS011;2578;51.622;7.046;2023-03-23T05:39:53;6.13;;;5.43;;
5117;SDS011;2578;51.622;7.046;2023-03-23T05:42:23;3.43;;;3.07;;
5117;SDS011;2578;51.622;7.046;2023-03-23T05:44:49;5.50;;;3.00;;
5117;SDS011;2578;51.622;7.046;2023-03-23T05:47:15;5.13;;;3.53;;
5117;SDS011;2578;51.622;7.046;2023-03-23T05:49:41;3.67;;;2.73;;
5117;SDS011;2578;51.622;7.046;2023-03-23T05:52:07;3.30;;;2.97;;
5117;SDS011;2578;51.622;7.046;2023-03-23T05:54:33;3.10;;;2.50;;
5117;SDS011;2578;51.622;7.046;2023-03-23T05:57:02;5.00;;;3.20;;
5117;SDS011;2578;51.622;7.046;2023-03-23T05:59:28;3.20;;;2.70;;
5117;SDS011;2578;51.622;7.046;2023-03-23T06:01:53;3.83;;;3.10;;
5117;SDS011;2578;51.622;7.046;2023-03-23T06:04:20;3.10;;;2.80;;
5117;SDS011;2578;51.622;7.046;2023-03-23T06:06:49;3.83;;;3.03;;
5117;SDS011;2578;51.622;7.046;2023-03-23T06:09:18;3.27;;;2.90;;
5117;SDS011;2578;51.622;7.046;2023-03-23T06:11:44;3.87;;;3.23;;
5117;SDS011;2578;51.622;7.046;2023-03-23T06:14:10;4.83;;;4.23;;
5117;SDS011;2578;51.622;7.046;2023-03-23T06:16:36;6.23;;;4.10;;
5117;SDS011;2578;51.622;7.046;2023-03-23T06:19:02;6.33;;;4.07;;
5117;SDS011;2578;51.622;7.046;2023-03-23T06:21:29;5.20;;;3.20;;
5117;SDS011;2578;51.622;7.046;2023-03-23T06:23:56;4.83;;;3.93;;
5117;SDS011;2578;51.622;7.046;2023-03-23T06:26:25;4.97;;;3.30;;
5117;SDS011;2578;51.622;7.046;2023-03-23T06:28:56;3.10;;;2.47;;
5117;SDS011;2578;51.622;7.046;2023-03-23T06:31:22;3.00;;;2.30;;
5117;SDS011;2578;51.622;7.046;2023-03-23T06:33:49;3.70;;;2.70;;
5117;SDS011;2578;51.622;7.046;2023-03-23T06:36:15;3.10;;;2.50;;
5117;SDS011;2578;51.622;7.046;2023-03-23T06:38:41;3.10;;;2.37;;
5117;SDS011;2578;51.622;7.046;2023-03-23T06:41:07;4.97;;;4.23;;
5117;SDS011;2578;51.622;7.046;2023-03-23T06:43:33;4.37;;;3.60;;
5117;SDS011;2578;51.622;7.046;2023-03-23T06:46:01;4.03;;;3.03;;
5117;SDS011;2578;51.622;7.046;2023-03-23T06:48:27;3.70;;;2.93;;
5117;SDS011;2578;51.622;7.046;2023-03-23T06:50:53;3.10;;;2.60;;
5117;SDS011;2578;51.622;7.046;2023-03-23T06:53:19;4.70;;;3.43;;
5117;SDS011;2578;51.622;7.046;2023-03-23T06:55:45;3.90;;;2.80;;
5117;SDS011;2578;51.622;7.046;2023-03-23T06:58:11;4.73;;;3.63;;
5117;SDS011;2578;51.622;7.046;2023-03-23T07:00:37;3.20;;;2.90;;
5117;SDS011;2578;51.622;7.046;2023-03-23T07:03:05;4.73;;;3.70;;
5117;SDS011;2578;51.622;7.046;2023-03-23T07:05:32;8.17;;;3.70;;
5117;SDS011;2578;51.622;7.046;2023-03-23T07:07:59;3.80;;;3.40;;
5117;SDS011;2578;51.622;7.046;2023-03-23T07:10:24;4.23;;;3.83;;
5117;SDS011;2578;51.622;7.046;2023-03-23T07:12:50;3.70;;;3.40;;
5117;SDS011;2578;51.622;7.046;2023-03-23T07:15:16;5.20;;;3.80;;
5117;SDS011;2578;51.622;7.046;2023-03-23T07:17:42;4.57;;;3.80;;
5117;SDS011;2578;51.622;7.046;2023-03-23T07:20:07;4.23;;;3.60;;
5117;SDS011;2578;51.622;7.046;2023-03-23T07:22:34;5.30;;;4.07;;
5117;SDS011;2578;51.622;7.046;2023-03-23T07:25:00;6.83;;;4.60;;
5117;SDS011;2578;51.622;7.046;2023-03-23T07:27:26;4.63;;;4.10;;
5117;SDS011;2578;51.622;7.046;2023-03-23T07:29:52;8.00;;;5.13;;
5117;SDS011;2578;51.622;7.046;2023-03-23T07:32:18;4.33;;;3.93;;
5117;SDS011;2578;51.622;7.046;2023-03-23T07:34:43;4.20;;;3.80;;
5117;SDS011;2578;51.622;7.046;2023-03-23T07:37:09;4.70;;;4.30;;
5117;SDS011;2578;51.622;7.046;2023-03-23T07:39:35;6.70;;;5.47;;
5117;SDS011;2578;51.622;7.046;2023-03-23T07:42:01;4.30;;;3.90;;
5117;SDS011;2578;51.622;7.046;2023-03-23T07:44:26;4.70;;;4.30;;
5117;SDS011;2578;51.622;7.046;2023-03-23T07:46:52;4.70;;;4.30;;
5117;SDS011;2578;51.622;7.046;2023-03-23T07:49:18;4.60;;;4.20;;
5117;SDS011;2578;51.622;7.046;2023-03-23T07:51:44;4.57;;;4.17;;
5117;SDS011;2578;51.622;7.046;2023-03-23T07:54:10;4.70;;;4.30;;
5117;SDS011;2578;51.622;7.046;2023-03-23T07:56:36;6.23;;;5.73;;
5117;SDS011;2578;51.622;7.046;2023-03-23T07:59:04;5.37;;;4.97;;
5117;SDS011;2578;51.622;7.046;2023-03-23T08:01:31;5.60;;;5.10;;
5117;SDS011;2578;51.622;7.046;2023-03-23T08:03:57;4.90;;;4.50;;
5117;SDS011;2578;51.622;7.046;2023-03-23T08:06:23;5.70;;;5.20;;
5117;SDS011;2578;51.622;7.046;2023-03-23T08:08:49;5.27;;;4.87;;
5117;SDS011;2578;51.622;7.046;2023-03-23T08:11:17;5.57;;;5.17;;
5117;SDS011;2578;51.622;7.046;2023-03-23T08:13:43;6.80;;;6.10;;
5117;SDS011;2578;51.622;7.046;2023-03-23T08:16:09;5.60;;;5.17;;
5117;SDS011;2578;51.622;7.046;2023-03-23T08:18:36;6.60;;;6.10;;
5117;SDS011;2578;51.622;7.046;2023-03-23T08:21:03;6.73;;;6.20;;
5117;SDS011;2578;51.622;7.046;2023-03-23T08:23:30;7.00;;;6.50;;
5117;SDS011;2578;51.622;7.046;2023-03-23T08:25:56;8.33;;;6.90;;
5117;SDS011;2578;51.622;7.046;2023-03-23T08:28:22;6.30;;;5.90;;
5117;SDS011;2578;51.622;7.046;2023-03-23T08:30:48;6.10;;;5.70;;
5117;SDS011;2578;51.622;7.046;2023-03-23T08:33:14;6.90;;;6.40;;
5117;SDS011;2578;51.622;7.046;2023-03-23T08:35:40;6.30;;;5.90;;
5117;SDS011;2578;51.622;7.046;2023-03-23T08:38:08;8.37;;;7.50;;
5117;SDS011;2578;51.622;7.046;2023-03-23T08:40:35;7.30;;;6.80;;
5117;SDS011;2578;51.622;7.046;2023-03-23T08:43:01;7.90;;;7.20;;
5117;SDS011;2578;51.622;7.046;2023-03-23T08:45:27;6.87;;;6.40;;
5117;SDS011;2578;51.622;7.046;2023-03-23T08:47:53;5.97;;;5.57;;
5117;SDS011;2578;51.622;7.046;2023-03-23T08:50:21;6.20;;;5.20;;
5117;SDS011;2578;51.622;7.046;2023-03-23T08:52:49;5.43;;;4.97;;
5117;SDS011;2578;51.622;7.046;2023-03-23T08:55:15;4.40;;;4.00;;
5117;SDS011;2578;51.622;7.046;2023-03-23T08:57:42;4.00;;;3.70;;
5117;SDS011;2578;51.622;7.046;2023-03-23T09:00:10;4.20;;;3.80;;
5117;SDS011;2578;51.622;7.046;2023-03-23T09:02:45;3.90;;;3.40;;
5117;SDS011;2578;51.622;7.046;2023-03-23T09:05:12;3.80;;;3.50;;
5117;SDS011;2578;51.622;7.046;2023-03-23T09:07:40;3.77;;;3.47;;
5117;SDS011;2578;51.622;7.046;2023-03-23T09:10:09;4.27;;;3.90;;
5117;SDS011;2578;51.622;7.046;2023-03-23T09:12:35;6.87;;;6.27;;
5117;SDS011;2578;51.622;7.046;2023-03-23T09:15:03;6.00;;;5.40;;
5117;SDS011;2578;51.622;7.046;2023-03-23T09:17:44;6.90;;;6.30;;
5117;SDS011;2578;51.622;7.046;2023-03-23T09:20:12;8.00;;;7.40;;
5117;SDS011;2578;51.622;7.046;2023-03-23T09:22:40;6.10;;;5.70;;
5117;SDS011;2578;51.622;7.046;2023-03-23T09:25:09;10.27;;;6.00;;
5117;SDS011;2578;51.622;7.046;2023-03-23T09:27:37;6.10;;;5.70;;
5117;SDS011;2578;51.622;7.046;2023-03-23T09:30:08;6.80;;;6.33;;
5117;SDS011;2578;51.622;7.046;2023-03-23T09:32:35;6.80;;;6.10;;
5117;SDS011;2578;51.622;7.046;2023-03-23T09:35:02;9.93;;;9.03;;
5117;SDS011;2578;51.622;7.046;2023-03-23T09:37:31;10.57;;;9.83;;
5117;SDS011;2578;51.622;7.046;2023-03-23T09:39:58;13.93;;;13.03;;
5117;SDS011;2578;51.622;7.046;2023-03-23T09:42:42;12.90;;;12.10;;
5117;SDS011;2578;51.622;7.046;2023-03-23T09:48:20;10.00;;;9.40;;
5117;SDS011;2578;51.622;7.046;2023-03-23T09:50:50;8.63;;;8.13;;
5117;SDS011;2578;51.622;7.046;2023-03-23T09:53:23;10.67;;;9.77;;
5117;SDS011;2578;51.622;7.046;2023-03-23T09:56:00;21.50;;;9.10;;
5117;SDS011;2578;51.622;7.046;2023-03-23T09:58:35;10.03;;;9.33;;
5117;SDS011;2578;51.622;7.046;2023-03-23T10:01:10;7.80;;;7.30;;
5117;SDS011;2578;51.622;7.046;2023-03-23T10:03:39;10.23;;;9.63;;
5117;SDS011;2578;51.622;7.046;2023-03-23T10:06:10;12.07;;;11.37;;
5117;SDS011;2578;51.622;7.046;2023-03-23T10:09:04;9.70;;;9.10;;
5117;SDS011;2578;51.622;7.046;2023-03-23T10:11:50;9.90;;;9.20;;
5117;SDS011;2578;51.622;7.046;2023-03-23T10:17:15;9.00;;;8.50;;
5117;SDS011;2578;51.622;7.046;2023-03-23T10:19:47;9.40;;;8.80;;
5117;SDS011;2578;51.622;7.046;2023-03-23T10:22:36;10.67;;;9.97;;
5117;SDS011;2578;51.622;7.046;2023-03-23T10:27:52;9.20;;;8.60;;
5117;SDS011;2578;51.622;7.046;2023-03-23T10:30:27;10.07;;;9.37;;
5117;SDS011;2578;51.622;7.046;2023-03-23T10:33:05;9.60;;;9.00;;
5117;SDS011;2578;51.622;7.046;2023-03-23T10:38:26;9.47;;;8.87;;
5117;SDS011;2578;51.622;7.046;2023-03-23T10:41:01;10.23;;;9.53;;
5117;SDS011;2578;51.622;7.046;2023-03-23T10:43:31;9.57;;;8.97;;
5117;SDS011;2578;51.622;7.046;2023-03-23T10:46:02;9.57;;;8.97;;
5117;SDS011;2578;51.622;7.046;2023-03-23T10:48:47;10.87;;;10.23;;
5117;SDS011;2578;51.622;7.046;2023-03-23T10:51:16;9.50;;;8.90;;
5117;SDS011;2578;51.622;7.046;2023-03-23T10:53:51;9.53;;;8.93;;
5117;SDS011;2578;51.622;7.046;2023-03-23T10:56:24;11.00;;;10.40;;
5117;SDS011;2578;51.622;7.046;2023-03-23T10:58:52;11.10;;;10.30;;
5117;SDS011;2578;51.622;7.046;2023-03-23T11:01:19;10.30;;;9.70;;
5117;SDS011;2578;51.622;7.046;2023-03-23T11:03:53;11.40;;;10.70;;
5117;SDS011;2578;51.622;7.046;2023-03-23T11:06:22;11.90;;;11.20;;
5117;SDS011;2578;51.622;7.046;2023-03-23T11:08:55;10.83;;;10.23;;
5117;SDS011;2578;51.622;7.046;2023-03-23T11:11:30;11.60;;;10.80;;
5117;SDS011;2578;51.622;7.046;2023-03-23T11:14:11;10.07;;;9.47;;
5117;SDS011;2578;51.622;7.046;2023-03-23T11:16:54;9.60;;;9.00;;
5117;SDS011;2578;51.622;7.046;2023-03-23T11:19:22;9.60;;;9.00;;
5117;SDS011;2578;51.622;7.046;2023-03-23T11:24:35;10.83;;;8.77;;
5117;SDS011;2578;51.622;7.046;2023-03-23T11:27:08;8.77;;;8.27;;
5117;SDS011;2578;51.622;7.046;2023-03-23T11:29:35;9.70;;;9.10;;
5117;SDS011;2578;51.622;7.046;2023-03-23T11:32:14;9.40;;;8.80;;
5117;SDS011;2578;51.622;7.046;2023-03-23T11:37:19;8.77;;;8.23;;
5117;SDS011;2578;51.622;7.046;2023-03-23T11:45:19;9.33;;;8.63;;
5117;SDS011;2578;51.622;7.046;2023-03-23T11:50:23;7.37;;;6.87;;
5117;SDS011;2578;51.622;7.046;2023-03-23T11:53:12;7.40;;;6.90;;
5117;SDS011;2578;51.622;7.046;2023-03-23T11:58:47;8.70;;;8.10;;
5117;SDS011;2578;51.622;7.046;2023-03-23T12:04:12;9.20;;;8.60;;
5117;SDS011;2578;51.622;7.046;2023-03-23T12:10:02;7.70;;;7.20;;
5117;SDS011;2578;51.622;7.046;2023-03-23T12:25:53;9.30;;;8.70;;
5117;SDS011;2578;51.622;7.046;2023-03-23T12:28:36;9.90;;;9.30;;
5117;SDS011;2578;51.622;7.046;2023-03-23T12:34:00;9.23;;;8.70;;
5117;SDS011;2578;51.622;7.046;2023-03-23T12:36:49;9.67;;;9.07;;
5117;SDS011;2578;51.622;7.046;2023-03-23T12:42:13;7.37;;;6.87;;
5117;SDS011;2578;51.622;7.046;2023-03-23T12:45:11;8.80;;;8.20;;
5117;SDS011;2578;51.622;7.046;2023-03-23T12:47:48;9.30;;;8.70;;
5117;SDS011;2578;51.622;7.046;2023-03-23T12:50:27;8.03;;;7.53;;
5117;SDS011;2578;51.622;7.046;2023-03-23T12:53:13;9.20;;;8.60;;
5117;SDS011;2578;51.622;7.046;2023-03-23T12:58:31;7.70;;;7.20;;
5117;SDS011;2578;51.622;7.046;2023-03-23T13:03:54;8.20;;;7.70;;
5117;SDS011;2578;51.622;7.046;2023-03-23T13:09:16;8.80;;;8.30;;
5117;SDS011;2578;51.622;7.046;2023-03-23T13:12:01;8.80;;;8.03;;
5117;SDS011;2578;51.622;7.046;2023-03-23T13:28:46;8.60;;;8.10;;
5117;SDS011;2578;51.622;7.046;2023-03-23T13:31:20;8.57;;;8.03;;
5117;SDS011;2578;51.622;7.046;2023-03-23T13:33:57;11.20;;;10.50;;
5117;SDS011;2578;51.622;7.046;2023-03-23T13:36:51;11.67;;;10.77;;
5117;SDS011;2578;51.622;7.046;2023-03-23T13:39:25;12.17;;;11.27;;
5117;SDS011;2578;51.622;7.046;2023-03-23T13:47:21;10.40;;;9.70;;
5117;SDS011;2578;51.622;7.046;2023-03-23T13:50:01;11.63;;;10.83;;
5117;SDS011;2578;51.622;7.046;2023-03-23T13:57:53;8.40;;;7.90;;
5117;SDS011;2578;51.622;7.046;2023-03-23T14:03:12;7.77;;;7.03;;
5117;SDS011;2578;51.622;7.046;2023-03-23T14:10:55;5.60;;;5.20;;
5117;SDS011;2578;51.622;7.046;2023-03-23T14:19:28;6.70;;;6.30;;
5117;SDS011;2578;51.622;7.046;2023-03-23T14:21:55;7.83;;;7.13;;
5117;SDS011;2578;51.622;7.046;2023-03-23T14:24:23;6.97;;;6.47;;
5117;SDS011;2578;51.622;7.046;2023-03-23T14:27:13;7.63;;;7.10;;
5117;SDS011;2578;51.622;7.046;2023-03-23T14:29:41;7.50;;;7.00;;
5117;SDS011;2578;51.622;7.046;2023-03-23T14:32:07;7.93;;;7.33;;
5117;SDS011;2578;51.622;7.046;2023-03-23T14:34:39;7.20;;;6.70;;
5117;SDS011;2578;51.622;7.046;2023-03-23T14:37:05;6.60;;;6.20;;
5117;SDS011;2578;51.622;7.046;2023-03-23T14:39:37;11.20;;;8.83;;
5117;SDS011;2578;51.622;7.046;2023-03-23T14:42:05;9.50;;;8.90;;
5117;SDS011;2578;51.622;7.046;2023-03-23T14:44:43;10.43;;;9.83;;
5117;SDS011;2578;51.622;7.046;2023-03-23T14:47:20;10.90;;;10.20;;
5117;SDS011;2578;51.622;7.046;2023-03-23T14:49:46;9.57;;;8.87;;
5117;SDS011;2578;51.622;7.046;2023-03-23T14:52:16;10.60;;;9.70;;
5117;SDS011;2578;51.622;7.046;2023-03-23T14:54:43;9.13;;;8.53;;
5117;SDS011;2578;51.622;7.046;2023-03-23T14:57:26;8.40;;;7.90;;
5117;SDS011;2578;51.622;7.046;2023-03-23T14:59:53;7.97;;;7.47;;
5117;SDS011;2578;51.622;7.046;2023-03-23T15:02:23;7.20;;;6.70;;
5117;SDS011;2578;51.622;7.046;2023-03-23T15:04:56;6.63;;;6.13;;
5117;SDS011;2578;51.622;7.046;2023-03-23T15:07:34;7.07;;;6.57;;
5117;SDS011;2578;51.622;7.046;2023-03-23T15:10:01;6.87;;;6.40;;
5117;SDS011;2578;51.622;7.046;2023-03-23T15:12:31;8.20;;;7.60;;
5117;SDS011;2578;51.622;7.046;2023-03-23T15:14:57;7.40;;;6.90;;
5117;SDS011;2578;51.622;7.046;2023-03-23T15:17:28;7.80;;;7.20;;
5117;SDS011;2578;51.622;7.046;2023-03-23T15:19:55;7.50;;;7.00;;
5117;SDS011;2578;51.622;7.046;2023-03-23T15:22:27;7.80;;;7.30;;
5117;SDS011;2578;51.622;7.046;2023-03-23T15:27:40;8.60;;;8.10;;
5117;SDS011;2578;51.622;7.046;2023-03-23T15:30:12;9.93;;;9.23;;
5117;SDS011;2578;51.622;7.046;2023-03-23T15:32:42;10.23;;;9.53;;
5117;SDS011;2578;51.622;7.046;2023-03-23T15:35:16;11.03;;;10.33;;
5117;SDS011;2578;51.622;7.046;2023-03-23T15:37:48;11.40;;;10.60;;
5117;SDS011;2578;51.622;7.046;2023-03-23T15:40:17;10.80;;;10.10;;
5117;SDS011;2578;51.622;7.046;2023-03-23T15:42:45;10.17;;;9.40;;
5117;SDS011;2578;51.622;7.046;2023-03-23T15:52:50;7.87;;;7.27;;
5117;SDS011;2578;51.622;7.046;2023-03-23T15:55:27;6.90;;;6.40;;
5117;SDS011;2578;51.622;7.046;2023-03-23T15:57:56;7.00;;;6.50;;
5117;SDS011;2578;51.622;7.046;2023-03-23T16:00:24;6.50;;;6.10;;
5117;SDS011;2578;51.622;7.046;2023-03-23T16:02:53;8.20;;;7.60;;
5117;SDS011;2578;51.622;7.046;2023-03-23T16:05:28;8.40;;;7.90;;
5117;SDS011;2578;51.622;7.046;2023-03-23T16:07:54;8.80;;;8.20;;
5117;SDS011;2578;51.622;7.046;2023-03-23T16:10:20;8.90;;;8.30;;
5117;SDS011;2578;51.622;7.046;2023-03-23T16:12:47;9.20;;;8.60;;
5117;SDS011;2578;51.622;7.046;2023-03-23T16:15:14;9.13;;;8.53;;
5117;SDS011;2578;51.622;7.046;2023-03-23T16:17:40;8.93;;;8.40;;
5117;SDS011;2578;51.622;7.046;2023-03-23T16:20:20;9.60;;;9.00;;
5117;SDS011;2578;51.622;7.046;2023-03-23T16:22:47;8.80;;;8.30;;
5117;SDS011;2578;51.622;7.046;2023-03-23T16:25:13;8.10;;;7.60;;
5117;SDS011;2578;51.622;7.046;2023-03-23T16:27:40;8.20;;;7.60;;
5117;SDS011;2578;51.622;7.046;2023-03-23T16:30:20;8.60;;;7.90;;
5117;SDS011;2578;51.622;7.046;2023-03-23T16:32:48;8.60;;;8.00;;
5117;SDS011;2578;51.622;7.046;2023-03-23T16:35:14;8.03;;;7.53;;
5117;SDS011;2578;51.622;7.046;2023-03-23T16:37:46;6.60;;;6.20;;
5117;SDS011;2578;51.622;7.046;2023-03-23T16:40:17;9.67;;;7.50;;
5117;SDS011;2578;51.622;7.046;2023-03-23T16:42:43;6.83;;;6.40;;
5117;SDS011;2578;51.622;7.046;2023-03-23T16:45:10;7.40;;;6.90;;
5117;SDS011;2578;51.622;7.046;2023-03-23T16:47:36;6.70;;;6.30;;
5117;SDS011;2578;51.622;7.046;2023-03-23T16:50:03;8.00;;;7.30;;
5117;SDS011;2578;51.622;7.046;2023-03-23T16:52:36;6.60;;;6.00;;
5117;SDS011;2578;51.622;7.046;2023-03-23T16:55:02;6.60;;;6.10;;
5117;SDS011;2578;51.622;7.046;2023-03-23T16:57:29;5.90;;;5.50;;
5117;SDS011;2578;51.622;7.046;2023-03-23T16:59:56;5.87;;;5.47;;
5117;SDS011;2578;51.622;7.046;2023-03-23T17:02:22;5.90;;;5.50;;
5117;SDS011;2578;51.622;7.046;2023-03-23T17:04:48;6.10;;;5.70;;
5117;SDS011;2578;51.622;7.046;2023-03-23T17:07:14;6.20;;;5.80;;
5117;SDS011;2578;51.622;7.046;2023-03-23T17:09:40;6.40;;;6.00;;
5117;SDS011;2578;51.622;7.046;2023-03-23T17:12:06;5.60;;;5.20;;
5117;SDS011;2578;51.622;7.046;2023-03-23T17:14:32;6.00;;;5.60;;
5117;SDS011;2578;51.622;7.046;2023-03-23T17:16:58;5.57;;;5.17;;
5117;SDS011;2578;51.622;7.046;2023-03-23T17:19:24;6.77;;;6.27;;
5117;SDS011;2578;51.622;7.046;2023-03-23T17:21:50;5.30;;;4.90;;
5117;SDS011;2578;51.622;7.046;2023-03-23T17:24:16;5.50;;;5.10;;
5117;SDS011;2578;51.622;7.046;2023-03-23T17:26:42;6.30;;;5.80;;
5117;SDS011;2578;51.622;7.046;2023-03-23T17:29:08;5.60;;;5.10;;
5117;SDS011;2578;51.622;7.046;2023-03-23T17:31:34;5.00;;;4.60;;
5117;SDS011;2578;51.622;7.046;2023-03-23T17:33:59;5.37;;;4.97;;
5117;SDS011;2578;51.622;7.046;2023-03-23T17:36:25;4.90;;;4.50;;
5117;SDS011;2578;51.622;7.046;2023-03-23T17:38:51;4.87;;;4.37;;
5117;SDS011;2578;51.622;7.046;2023-03-23T17:41:17;4.17;;;3.87;;